NCAR-RAP Real-Time Weather Data

Output produced by METARs form (12 May 2021  11:35 UTC)
found at http://weather.rap.ucar.edu/surface/
 
KPHX 121051Z 08004KT 10SM CLR 22/M03 A2988 RMK AO2 SLP099 T02171033
KPHX 120951Z 00000KT 10SM CLR 23/M02 A2987 RMK AO2 SLP095 T02281022
KPHX 120851Z 11003KT 10SM CLR 23/M02 A2986 RMK AO2 SLP094 T02281017 51009
KPHX 120751Z 00000KT 10SM CLR 25/M02 A2985 RMK AO2 SLP091 T02501022
KPHX 120651Z 08005KT 10SM CLR 26/M03 A2984 RMK AO2 SLP087 T02561028 403500194
KPHX 120551Z 00000KT 10SM CLR 29/M08 A2983 RMK AO2 SLP083 T02891078 10350 20278 51012
KPHX 120451Z 24003KT 10SM CLR 28/M06 A2983 RMK AO2 SLP083 T02831061
KPHX 120351Z 00000KT 10SM CLR 29/M08 A2981 RMK AO2 SLP077 T02941078
KPHX 120251Z 28009KT 10SM FEW250 33/M11 A2980 RMK AO2 SLP071 T03281106 53006
KPHX 120151Z 27009KT 10SM CLR 33/M08 A2978 RMK AO2 SLP067 T03331083
KPHX 120051Z 25006KT 10SM CLR 34/M12 A2978 RMK AO2 SLP065 T03391122
KPHX 112351Z 00000KT 10SM CLR 34/M13 A2978 RMK AO2 SLP065 T03391128 10350 20294 56016
KPHX 112251Z 16009KT 10SM CLR 34/M12 A2979 RMK AO2 SLP067 T03441117
KPHX 112151Z VRB03KT 10SM CLR 33/M12 A2980 RMK AO2 SLP074 T03331117